sensor_id;sensor_type;location;lat;lon;timestamp;pressure;altitude;pressure_sealevel;temperature;humidity
17936;BME280;9093;52.062;4.508;2022-11-15T00:00:45;101092.16;;;8.24;78.72
17936;BME280;9093;52.062;4.508;2022-11-15T00:03:26;101090.38;;;8.25;79.03
17936;BME280;9093;52.062;4.508;2022-11-15T00:06:06;101094.78;;;8.26;79.08
17936;BME280;9093;52.062;4.508;2022-11-15T00:08:46;101084.94;;;8.28;78.75
17936;BME280;9093;52.062;4.508;2022-11-15T00:11:26;101087.63;;;8.28;78.67
17936;BME280;9093;52.062;4.508;2022-11-15T00:14:07;101083.06;;;8.30;78.85
17936;BME280;9093;52.062;4.508;2022-11-15T00:16:47;101083.06;;;8.30;78.94
17936;BME280;9093;52.062;4.508;2022-11-15T00:19:27;101081.34;;;8.29;78.85
17936;BME280;9093;52.062;4.508;2022-11-15T00:22:07;101085.72;;;8.30;79.12
17936;BME280;9093;52.062;4.508;2022-11-15T00:24:47;101084.78;;;8.32;78.92
17936;BME280;9093;52.062;4.508;2022-11-15T00:27:27;101080.41;;;8.31;78.82
17936;BME280;9093;52.062;4.508;2022-11-15T00:30:08;101075.09;;;8.30;79.03
17936;BME280;9093;52.062;4.508;2022-11-15T00:32:48;101069.78;;;8.30;79.27
17936;BME280;9093;52.062;4.508;2022-11-15T00:35:30;101066.22;;;8.31;78.96
17936;BME280;9093;52.062;4.508;2022-11-15T00:38:11;101058.25;;;8.31;79.31
17936;BME280;9093;52.062;4.508;2022-11-15T00:40:51;101057.31;;;8.32;79.36
17936;BME280;9093;52.062;4.508;2022-11-15T00:43:31;101055.47;;;8.34;79.24
17936;BME280;9093;52.062;4.508;2022-11-15T00:46:11;101056.34;;;8.34;79.12
17936;BME280;9093;52.062;4.508;2022-11-15T00:51:42;101049.19;;;8.35;79.19
17936;BME280;9093;52.062;4.508;2022-11-15T00:54:22;101054.47;;;8.36;79.27
17936;BME280;9093;52.062;4.508;2022-11-15T00:57:02;101053.47;;;8.39;79.39
17936;BME280;9093;52.062;4.508;2022-11-15T00:59:42;101055.13;;;8.41;79.17
17936;BME280;9093;52.062;4.508;2022-11-15T01:02:22;101055.06;;;8.43;79.38
17936;BME280;9093;52.062;4.508;2022-11-15T01:05:03;101049.63;;;8.46;79.30
17936;BME280;9093;52.062;4.508;2022-11-15T01:10:33;101045.97;;;8.48;79.42
17936;BME280;9093;52.062;4.508;2022-11-15T01:16:07;101043.19;;;8.52;79.41
17936;BME280;9093;52.062;4.508;2022-11-15T01:18:47;101029.84;;;8.53;79.24
17936;BME280;9093;52.062;4.508;2022-11-15T01:27:08;101024.25;;;8.59;79.21
17936;BME280;9093;52.062;4.508;2022-11-15T01:29:49;101021.44;;;8.62;79.46
17936;BME280;9093;52.062;4.508;2022-11-15T01:35:20;101010.72;;;8.64;79.45
17936;BME280;9093;52.062;4.508;2022-11-15T01:38:01;101006.13;;;8.67;79.41
17936;BME280;9093;52.062;4.508;2022-11-15T01:40:41;101017.59;;;8.69;79.53
17936;BME280;9093;52.062;4.508;2022-11-15T01:43:25;101015.72;;;8.71;79.18
17936;BME280;9093;52.062;4.508;2022-11-15T01:51:47;100994.16;;;8.77;79.24
17936;BME280;9093;52.062;4.508;2022-11-15T02:00:09;100990.38;;;8.83;79.57
17936;BME280;9093;52.062;4.508;2022-11-15T02:02:49;100987.66;;;8.84;79.50
17936;BME280;9093;52.062;4.508;2022-11-15T02:05:30;100985.75;;;8.86;79.60
17936;BME280;9093;52.062;4.508;2022-11-15T02:08:10;100987.38;;;8.91;79.42
17936;BME280;9093;52.062;4.508;2022-11-15T02:10:59;100979.28;;;8.92;79.52
17936;BME280;9093;52.062;4.508;2022-11-15T02:13:39;100974.72;;;8.96;79.43
17936;BME280;9093;52.062;4.508;2022-11-15T02:16:29;100964.88;;;8.98;79.54
17936;BME280;9093;52.062;4.508;2022-11-15T02:24:58;100954.72;;;9.06;79.75
17936;BME280;9093;52.062;4.508;2022-11-15T02:36:09;100947.06;;;9.17;79.62
17936;BME280;9093;52.062;4.508;2022-11-15T02:38:53;100930.25;;;9.16;79.78
17936;BME280;9093;52.062;4.508;2022-11-15T02:44:37;100932.69;;;9.21;79.64
17936;BME280;9093;52.062;4.508;2022-11-15T02:47:19;100932.53;;;9.24;79.84
17936;BME280;9093;52.062;4.508;2022-11-15T02:50:02;100939.59;;;9.25;79.72
17936;BME280;9093;52.062;4.508;2022-11-15T02:52:47;100930.69;;;9.26;79.65
17936;BME280;9093;52.062;4.508;2022-11-15T02:55:38;100925.22;;;9.29;79.82
17936;BME280;9093;52.062;4.508;2022-11-15T03:03:43;100929.41;;;9.35;79.73
17936;BME280;9093;52.062;4.508;2022-11-15T03:12:06;100927.22;;;9.43;79.78
17936;BME280;9093;52.062;4.508;2022-11-15T03:14:58;100926.22;;;9.45;79.92
17936;BME280;9093;52.062;4.508;2022-11-15T03:17:43;100920.81;;;9.47;80.22
17936;BME280;9093;52.062;4.508;2022-11-15T03:20:25;100925.03;;;9.51;80.13
17936;BME280;9093;52.062;4.508;2022-11-15T03:23:08;100929.38;;;9.53;80.20
17936;BME280;9093;52.062;4.508;2022-11-15T03:25:49;100926.63;;;9.55;80.12
17936;BME280;9093;52.062;4.508;2022-11-15T03:28:44;100926.47;;;9.58;80.10
17936;BME280;9093;52.062;4.508;2022-11-15T03:31:27;100914.81;;;9.60;80.19
17936;BME280;9093;52.062;4.508;2022-11-15T03:37:07;100911.84;;;9.66;80.13
17936;BME280;9093;52.062;4.508;2022-11-15T03:39:48;100905.44;;;9.71;80.13
17936;BME280;9093;52.062;4.508;2022-11-15T03:42:51;100901.66;;;9.75;80.19
17936;BME280;9093;52.062;4.508;2022-11-15T03:45:31;100906.69;;;9.81;80.11
17936;BME280;9093;52.062;4.508;2022-11-15T03:48:14;100907.41;;;9.84;80.10
17936;BME280;9093;52.062;4.508;2022-11-15T03:50:56;100917.91;;;9.87;80.09
17936;BME280;9093;52.062;4.508;2022-11-15T03:53:36;100915.09;;;9.90;80.00
17936;BME280;9093;52.062;4.508;2022-11-15T03:56:16;100911.28;;;9.96;80.10
17936;BME280;9093;52.062;4.508;2022-11-15T03:58:57;100913.63;;;10.02;80.19
17936;BME280;9093;52.062;4.508;2022-11-15T04:01:37;100917.84;;;10.06;80.17
17936;BME280;9093;52.062;4.508;2022-11-15T04:04:17;100908.59;;;10.13;80.32
17936;BME280;9093;52.062;4.508;2022-11-15T04:06:57;100909.25;;;10.18;80.16
17936;BME280;9093;52.062;4.508;2022-11-15T04:09:37;100901.19;;;10.20;80.08
17936;BME280;9093;52.062;4.508;2022-11-15T04:12:39;100895.72;;;10.23;80.24
17936;BME280;9093;52.062;4.508;2022-11-15T04:15:22;100904.41;;;10.26;80.22
17936;BME280;9093;52.062;4.508;2022-11-15T04:18:03;100902.53;;;10.28;80.45
17936;BME280;9093;52.062;4.508;2022-11-15T04:20:43;100901.50;;;10.31;80.34
17936;BME280;9093;52.062;4.508;2022-11-15T04:23:42;100903.94;;;10.35;80.39
17936;BME280;9093;52.062;4.508;2022-11-15T04:26:52;100896.63;;;10.39;80.31
17936;BME280;9093;52.062;4.508;2022-11-15T04:29:32;100899.22;;;10.40;80.46
17936;BME280;9093;52.062;4.508;2022-11-15T04:32:15;100891.16;;;10.42;80.35
17936;BME280;9093;52.062;4.508;2022-11-15T04:34:55;100882.03;;;10.46;80.55
17936;BME280;9093;52.062;4.508;2022-11-15T04:37:35;100874.69;;;10.49;80.70
17936;BME280;9093;52.062;4.508;2022-11-15T04:40:16;100882.63;;;10.51;80.66
17936;BME280;9093;52.062;4.508;2022-11-15T04:42:56;100881.78;;;10.51;80.56
17936;BME280;9093;52.062;4.508;2022-11-15T04:45:36;100882.56;;;10.53;80.57
17936;BME280;9093;52.062;4.508;2022-11-15T04:48:16;100889.63;;;10.54;80.61
17936;BME280;9093;52.062;4.508;2022-11-15T04:50:56;100892.13;;;10.57;80.80
17936;BME280;9093;52.062;4.508;2022-11-15T04:53:37;100896.53;;;10.58;80.64
17936;BME280;9093;52.062;4.508;2022-11-15T04:56:17;100904.38;;;10.61;80.89
17936;BME280;9093;52.062;4.508;2022-11-15T04:58:57;100900.78;;;10.62;80.84
17936;BME280;9093;52.062;4.508;2022-11-15T05:01:37;100914.03;;;10.63;80.69
17936;BME280;9093;52.062;4.508;2022-11-15T05:04:17;100905.16;;;10.63;80.89
17936;BME280;9093;52.062;4.508;2022-11-15T05:07:00;100912.16;;;10.65;80.85
17936;BME280;9093;52.062;4.508;2022-11-15T05:09:41;100924.47;;;10.68;80.73
17936;BME280;9093;52.062;4.508;2022-11-15T05:12:21;100923.44;;;10.70;81.03
17936;BME280;9093;52.062;4.508;2022-11-15T05:15:01;100916.22;;;10.72;80.90
17936;BME280;9093;52.062;4.508;2022-11-15T05:17:42;100920.69;;;10.72;80.93
17936;BME280;9093;52.062;4.508;2022-11-15T05:20:22;100914.41;;;10.73;80.92
17936;BME280;9093;52.062;4.508;2022-11-15T05:23:02;100917.00;;;10.74;81.19
17936;BME280;9093;52.062;4.508;2022-11-15T05:25:42;100909.84;;;10.75;81.21
17936;BME280;9093;52.062;4.508;2022-11-15T05:28:22;100914.34;;;10.74;81.03
17936;BME280;9093;52.062;4.508;2022-11-15T05:31:03;100914.22;;;10.76;81.02
17936;BME280;9093;52.062;4.508;2022-11-15T05:33:44;100907.94;;;10.77;81.43
17936;BME280;9093;52.062;4.508;2022-11-15T05:36:29;100915.97;;;10.77;81.21
17936;BME280;9093;52.062;4.508;2022-11-15T05:39:11;100917.69;;;10.78;81.25
17936;BME280;9093;52.062;4.508;2022-11-15T05:41:52;100915.03;;;10.78;81.33
17936;BME280;9093;52.062;4.508;2022-11-15T05:44:35;100915.97;;;10.77;81.33
17936;BME280;9093;52.062;4.508;2022-11-15T05:47:17;100918.63;;;10.77;81.52
17936;BME280;9093;52.062;4.508;2022-11-15T05:49:59;100918.56;;;10.78;81.21
17936;BME280;9093;52.062;4.508;2022-11-15T05:52:39;100914.94;;;10.79;81.53
17936;BME280;9093;52.062;4.508;2022-11-15T05:55:19;100914.09;;;10.79;81.39
17936;BME280;9093;52.062;4.508;2022-11-15T05:58:00;100920.38;;;10.78;81.26
17936;BME280;9093;52.062;4.508;2022-11-15T06:00:40;100921.16;;;10.80;81.25
17936;BME280;9093;52.062;4.508;2022-11-15T06:03:23;100933.72;;;10.78;81.58
17936;BME280;9093;52.062;4.508;2022-11-15T06:06:03;100929.25;;;10.78;81.71
17936;BME280;9093;52.062;4.508;2022-11-15T06:08:43;100937.34;;;10.77;81.36
17936;BME280;9093;52.062;4.508;2022-11-15T06:11:23;100942.66;;;10.77;81.67
17936;BME280;9093;52.062;4.508;2022-11-15T06:14:03;100946.28;;;10.76;81.57
17936;BME280;9093;52.062;4.508;2022-11-15T06:16:44;100937.50;;;10.74;81.76
17936;BME280;9093;52.062;4.508;2022-11-15T06:19:24;100934.97;;;10.71;81.66
17936;BME280;9093;52.062;4.508;2022-11-15T06:22:04;100942.19;;;10.69;81.69
17936;BME280;9093;52.062;4.508;2022-11-15T06:24:45;100942.31;;;10.67;81.50
17936;BME280;9093;52.062;4.508;2022-11-15T06:27:25;100943.25;;;10.66;81.64
17936;BME280;9093;52.062;4.508;2022-11-15T06:30:05;100936.09;;;10.67;81.68
17936;BME280;9093;52.062;4.508;2022-11-15T06:32:46;100936.31;;;10.62;81.82
17936;BME280;9093;52.062;4.508;2022-11-15T06:35:26;100934.69;;;10.60;81.76
17936;BME280;9093;52.062;4.508;2022-11-15T06:38:07;100928.75;;;10.55;82.01
17936;BME280;9093;52.062;4.508;2022-11-15T06:40:48;100937.75;;;10.52;81.75
17936;BME280;9093;52.062;4.508;2022-11-15T06:43:28;100937.94;;;10.49;81.73
17936;BME280;9093;52.062;4.508;2022-11-15T06:46:08;100941.63;;;10.46;82.01
17936;BME280;9093;52.062;4.508;2022-11-15T06:48:52;100954.16;;;10.44;82.06
17936;BME280;9093;52.062;4.508;2022-11-15T06:51:33;100965.78;;;10.43;81.93
17936;BME280;9093;52.062;4.508;2022-11-15T06:54:13;100965.94;;;10.40;81.82
17936;BME280;9093;52.062;4.508;2022-11-15T06:56:53;100962.50;;;10.38;82.02
17936;BME280;9093;52.062;4.508;2022-11-15T06:59:33;100962.59;;;10.37;82.17
17936;BME280;9093;52.062;4.508;2022-11-15T07:02:13;100968.00;;;10.35;82.06
17936;BME280;9093;52.062;4.508;2022-11-15T07:04:53;100962.66;;;10.35;82.07
17936;BME280;9093;52.062;4.508;2022-11-15T07:07:34;100962.66;;;10.35;82.05
17936;BME280;9093;52.062;4.508;2022-11-15T07:10:14;100962.66;;;10.35;82.18
17936;BME280;9093;52.062;4.508;2022-11-15T07:12:55;100954.59;;;10.37;81.93
17936;BME280;9093;52.062;4.508;2022-11-15T07:15:36;100960.69;;;10.39;82.06
17936;BME280;9093;52.062;4.508;2022-11-15T07:18:16;100961.47;;;10.41;81.90
17936;BME280;9093;52.062;4.508;2022-11-15T07:21:00;100962.34;;;10.41;81.96
17936;BME280;9093;52.062;4.508;2022-11-15T07:23:40;100967.50;;;10.44;81.82
17936;BME280;9093;52.062;4.508;2022-11-15T07:26:20;100972.84;;;10.44;81.92
17936;BME280;9093;52.062;4.508;2022-11-15T07:29:01;100962.03;;;10.47;81.89
17936;BME280;9093;52.062;4.508;2022-11-15T07:31:41;100957.44;;;10.49;81.77
17936;BME280;9093;52.062;4.508;2022-11-15T07:34:21;100941.38;;;10.51;81.96
17936;BME280;9093;52.062;4.508;2022-11-15T07:37:02;100947.50;;;10.53;81.86
17936;BME280;9093;52.062;4.508;2022-11-15T07:39:42;100945.69;;;10.54;81.60
17936;BME280;9093;52.062;4.508;2022-11-15T07:42:22;100953.69;;;10.54;81.57
17936;BME280;9093;52.062;4.508;2022-11-15T07:45:22;100949.31;;;10.53;81.61
17936;BME280;9093;52.062;4.508;2022-11-15T07:48:04;100948.38;;;10.54;81.81
17936;BME280;9093;52.062;4.508;2022-11-15T07:50:44;100939.56;;;10.52;81.73
17936;BME280;9093;52.062;4.508;2022-11-15T07:53:24;100939.56;;;10.52;81.79
17936;BME280;9093;52.062;4.508;2022-11-15T07:56:08;100931.72;;;10.48;81.87
17936;BME280;9093;52.062;4.508;2022-11-15T07:58:48;100929.06;;;10.48;81.82
17936;BME280;9093;52.062;4.508;2022-11-15T08:01:30;100926.38;;;10.48;81.74
17936;BME280;9093;52.062;4.508;2022-11-15T08:04:10;100924.66;;;10.47;81.66
17936;BME280;9093;52.062;4.508;2022-11-15T08:06:51;100931.72;;;10.48;81.52
17936;BME280;9093;52.062;4.508;2022-11-15T08:09:31;100923.72;;;10.48;81.75
17936;BME280;9093;52.062;4.508;2022-11-15T08:12:11;100924.41;;;10.52;81.76
17936;BME280;9093;52.062;4.508;2022-11-15T08:14:51;100919.94;;;10.53;81.78
17936;BME280;9093;52.062;4.508;2022-11-15T08:17:31;100926.06;;;10.55;81.36
17936;BME280;9093;52.062;4.508;2022-11-15T08:20:12;100920.56;;;10.58;81.63
17936;BME280;9093;52.062;4.508;2022-11-15T08:22:53;100921.16;;;10.63;81.38
17936;BME280;9093;52.062;4.508;2022-11-15T08:25:33;100905.00;;;10.66;81.46
17936;BME280;9093;52.062;4.508;2022-11-15T08:28:15;100913.81;;;10.68;81.29
17936;BME280;9093;52.062;4.508;2022-11-15T08:30:56;100918.03;;;10.72;81.32
17936;BME280;9093;52.062;4.508;2022-11-15T08:33:36;100910.81;;;10.74;81.10
17936;BME280;9093;52.062;4.508;2022-11-15T08:36:16;100907.16;;;10.75;81.21
17936;BME280;9093;52.062;4.508;2022-11-15T08:38:57;100903.56;;;10.76;81.09
17936;BME280;9093;52.062;4.508;2022-11-15T08:41:37;100903.56;;;10.76;81.04
17936;BME280;9093;52.062;4.508;2022-11-15T08:44:17;100890.13;;;10.77;81.32
17936;BME280;9093;52.062;4.508;2022-11-15T08:46:57;100896.25;;;10.79;81.00
17936;BME280;9093;52.062;4.508;2022-11-15T08:49:37;100895.22;;;10.82;81.17
17936;BME280;9093;52.062;4.508;2022-11-15T08:52:18;100898.66;;;10.84;81.06
17936;BME280;9093;52.062;4.508;2022-11-15T08:54:58;100889.88;;;10.82;80.98
17936;BME280;9093;52.062;4.508;2022-11-15T08:57:38;100895.13;;;10.83;81.20
17936;BME280;9093;52.062;4.508;2022-11-15T09:00:18;100891.59;;;10.83;80.88
17936;BME280;9093;52.062;4.508;2022-11-15T09:02:59;100893.31;;;10.84;81.00
17936;BME280;9093;52.062;4.508;2022-11-15T09:05:39;100896.00;;;10.84;80.98
17936;BME280;9093;52.062;4.508;2022-11-15T09:08:20;100897.72;;;10.85;81.07
17936;BME280;9093;52.062;4.508;2022-11-15T09:11:06;100894.13;;;10.86;81.05
17936;BME280;9093;52.062;4.508;2022-11-15T09:13:47;100895.66;;;10.90;80.82
17936;BME280;9093;52.062;4.508;2022-11-15T09:16:27;100900.84;;;10.93;80.73
17936;BME280;9093;52.062;4.508;2022-11-15T09:19:07;100898.94;;;10.95;80.77
17936;BME280;9093;52.062;4.508;2022-11-15T09:21:47;100898.78;;;10.98;80.62
17936;BME280;9093;52.062;4.508;2022-11-15T09:24:28;100891.53;;;11.00;80.73
17936;BME280;9093;52.062;4.508;2022-11-15T09:27:08;100895.00;;;11.02;80.76
17936;BME280;9093;52.062;4.508;2022-11-15T09:29:48;100895.00;;;11.02;80.77
17936;BME280;9093;52.062;4.508;2022-11-15T09:32:28;100903.81;;;11.04;80.70
17936;BME280;9093;52.062;4.508;2022-11-15T09:35:10;100901.91;;;11.06;80.81
17936;BME280;9093;52.062;4.508;2022-11-15T09:37:50;100891.91;;;11.10;80.70
17936;BME280;9093;52.062;4.508;2022-11-15T09:40:31;100895.38;;;11.12;80.60
17936;BME280;9093;52.062;4.508;2022-11-15T09:48:48;100889.75;;;11.16;80.42
17936;BME280;9093;52.062;4.508;2022-11-15T09:51:39;100885.22;;;11.18;80.73
17936;BME280;9093;52.062;4.508;2022-11-15T09:54:30;100870.88;;;11.19;80.55
17936;BME280;9093;52.062;4.508;2022-11-15T10:00:01;100860.81;;;11.24;80.64
17936;BME280;9093;52.062;4.508;2022-11-15T10:02:46;100865.19;;;11.25;80.58
17936;BME280;9093;52.062;4.508;2022-11-15T10:05:30;100847.25;;;11.27;80.66
17936;BME280;9093;52.062;4.508;2022-11-15T10:11:17;100839.84;;;11.33;80.40
17936;BME280;9093;52.062;4.508;2022-11-15T10:14:00;100850.38;;;11.36;80.38
17936;BME280;9093;52.062;4.508;2022-11-15T10:22:45;100848.88;;;11.46;80.20
17936;BME280;9093;52.062;4.508;2022-11-15T10:28:31;100836.03;;;11.52;80.27
17936;BME280;9093;52.062;4.508;2022-11-15T10:30:56;100836.63;;;11.57;80.05
17936;BME280;9093;52.062;4.508;2022-11-15T10:33:39;100823.00;;;11.62;80.08
17936;BME280;9093;52.062;4.508;2022-11-15T10:36:21;100815.63;;;11.65;80.01
17936;BME280;9093;52.062;4.508;2022-11-15T10:39:02;100803.91;;;11.68;80.00
17936;BME280;9093;52.062;4.508;2022-11-15T10:41:43;100799.22;;;11.72;79.98
17936;BME280;9093;52.062;4.508;2022-11-15T10:44:24;100800.84;;;11.76;79.88
17936;BME280;9093;52.062;4.508;2022-11-15T10:47:07;100795.28;;;11.79;79.91
17936;BME280;9093;52.062;4.508;2022-11-15T10:50:01;100787.94;;;11.82;79.91
17936;BME280;9093;52.062;4.508;2022-11-15T10:52:44;100783.34;;;11.84;79.77
17936;BME280;9093;52.062;4.508;2022-11-15T10:55:29;100794.63;;;11.89;79.88
17936;BME280;9093;52.062;4.508;2022-11-15T11:01:20;100791.34;;;12.00;79.78
17936;BME280;9093;52.062;4.508;2022-11-15T11:04:02;100791.03;;;12.04;79.92
17936;BME280;9093;52.062;4.508;2022-11-15T11:06:47;100788.06;;;12.09;79.82
17936;BME280;9093;52.062;4.508;2022-11-15T11:12:11;100772.34;;;12.19;79.52
17936;BME280;9093;52.062;4.508;2022-11-15T11:14:52;100769.38;;;12.23;79.57
17936;BME280;9093;52.062;4.508;2022-11-15T11:17:57;100762.78;;;12.29;79.55
17936;BME280;9093;52.062;4.508;2022-11-15T11:20:44;100766.00;;;12.34;79.27
17936;BME280;9093;52.062;4.508;2022-11-15T11:26:32;100741.34;;;12.43;79.42
17936;BME280;9093;52.062;4.508;2022-11-15T11:29:19;100718.91;;;12.45;79.43
17936;BME280;9093;52.062;4.508;2022-11-15T11:43:34;100722.59;;;12.57;79.57
17936;BME280;9093;52.062;4.508;2022-11-15T11:46:33;100724.22;;;12.60;79.53
17936;BME280;9093;52.062;4.508;2022-11-15T11:49:23;100705.28;;;12.63;79.60
17936;BME280;9093;52.062;4.508;2022-11-15T11:52:08;100703.47;;;12.63;79.50
17936;BME280;9093;52.062;4.508;2022-11-15T11:55:05;100697.03;;;12.66;79.43
17936;BME280;9093;52.062;4.508;2022-11-15T11:57:52;100695.13;;;12.68;79.43
17936;BME280;9093;52.062;4.508;2022-11-15T12:00:38;100681.63;;;12.69;79.35
17936;BME280;9093;52.062;4.508;2022-11-15T12:06:32;100674.34;;;12.71;79.30
17936;BME280;9093;52.062;4.508;2022-11-15T12:12:02;100652.91;;;12.71;79.29
17936;BME280;9093;52.062;4.508;2022-11-15T12:17:43;100646.31;;;12.77;79.27
17936;BME280;9093;52.062;4.508;2022-11-15T12:21:08;100638.16;;;12.78;79.34
17936;BME280;9093;52.062;4.508;2022-11-15T12:23:29;100646.78;;;12.83;79.10
17936;BME280;9093;52.062;4.508;2022-11-15T12:26:15;100640.25;;;12.87;79.11
17936;BME280;9093;52.062;4.508;2022-11-15T12:29:01;100620.22;;;12.93;78.97
17936;BME280;9093;52.062;4.508;2022-11-15T12:31:44;100622.56;;;12.98;78.86
17936;BME280;9093;52.062;4.508;2022-11-15T12:42:57;100608.94;;;13.15;78.48
17936;BME280;9093;52.062;4.508;2022-11-15T12:45:38;100599.72;;;13.19;78.44
17936;BME280;9093;52.062;4.508;2022-11-15T12:50:59;100593.94;;;13.25;78.37
17936;BME280;9093;52.062;4.508;2022-11-15T12:53:39;100593.72;;;13.28;78.23
17936;BME280;9093;52.062;4.508;2022-11-15T12:56:20;100583.84;;;13.28;78.23
17936;BME280;9093;52.062;4.508;2022-11-15T12:59:00;100586.44;;;13.30;78.30
17936;BME280;9093;52.062;4.508;2022-11-15T13:04:25;100579.16;;;13.32;78.20
17936;BME280;9093;52.062;4.508;2022-11-15T13:07:06;100574.66;;;13.33;78.29
17936;BME280;9093;52.062;4.508;2022-11-15T13:17:54;100553.19;;;13.33;78.03
17936;BME280;9093;52.062;4.508;2022-11-15T13:20:35;100554.06;;;13.33;78.04
17936;BME280;9093;52.062;4.508;2022-11-15T13:23:15;100538.84;;;13.34;78.00
17936;BME280;9093;52.062;4.508;2022-11-15T13:28:50;100545.25;;;13.31;78.16
17936;BME280;9093;52.062;4.508;2022-11-15T13:31:36;100540.00;;;13.29;78.05
17936;BME280;9093;52.062;4.508;2022-11-15T13:36:57;100523.38;;;13.24;78.03
17936;BME280;9093;52.062;4.508;2022-11-15T13:39:38;100518.09;;;13.23;78.09
17936;BME280;9093;52.062;4.508;2022-11-15T13:42:18;100519.06;;;13.22;78.07
17936;BME280;9093;52.062;4.508;2022-11-15T13:45:00;100511.03;;;13.22;78.08
17936;BME280;9093;52.062;4.508;2022-11-15T13:47:40;100501.28;;;13.21;78.04
17936;BME280;9093;52.062;4.508;2022-11-15T13:50:21;100495.06;;;13.20;78.02
17936;BME280;9093;52.062;4.508;2022-11-15T13:53:02;100499.34;;;13.23;77.84
17936;BME280;9093;52.062;4.508;2022-11-15T13:55:43;100483.25;;;13.23;77.84
17936;BME280;9093;52.062;4.508;2022-11-15T13:58:24;100489.47;;;13.23;77.89
17936;BME280;9093;52.062;4.508;2022-11-15T14:01:04;100475.31;;;13.21;77.81
17936;BME280;9093;52.062;4.508;2022-11-15T14:03:49;100467.50;;;13.18;77.88
17936;BME280;9093;52.062;4.508;2022-11-15T14:06:30;100464.19;;;13.15;77.90
17936;BME280;9093;52.062;4.508;2022-11-15T14:11:52;100447.25;;;13.14;77.83
17936;BME280;9093;52.062;4.508;2022-11-15T14:14:32;100448.13;;;13.15;77.55
17936;BME280;9093;52.062;4.508;2022-11-15T14:17:19;100444.69;;;13.13;77.52
17936;BME280;9093;52.062;4.508;2022-11-15T14:19:59;100432.19;;;13.12;77.70
17936;BME280;9093;52.062;4.508;2022-11-15T14:22:39;100426.84;;;13.12;77.54
17936;BME280;9093;52.062;4.508;2022-11-15T14:25:31;100428.03;;;13.08;77.56
17936;BME280;9093;52.062;4.508;2022-11-15T14:28:13;100423.63;;;13.07;77.51
17936;BME280;9093;52.062;4.508;2022-11-15T14:30:55;100417.41;;;13.06;77.54
17936;BME280;9093;52.062;4.508;2022-11-15T14:33:36;100414.84;;;13.05;77.32
17936;BME280;9093;52.062;4.508;2022-11-15T14:36:20;100408.63;;;13.04;77.42
17936;BME280;9093;52.062;4.508;2022-11-15T14:39:00;100411.41;;;13.03;77.46
17936;BME280;9093;52.062;4.508;2022-11-15T14:41:41;100403.34;;;13.03;77.16
17936;BME280;9093;52.062;4.508;2022-11-15T14:44:21;100396.31;;;13.02;77.30
17936;BME280;9093;52.062;4.508;2022-11-15T14:47:02;100402.63;;;13.01;77.15
17936;BME280;9093;52.062;4.508;2022-11-15T14:49:42;100389.34;;;12.99;77.13
17936;BME280;9093;52.062;4.508;2022-11-15T14:55:16;100389.66;;;12.95;77.17
17936;BME280;9093;52.062;4.508;2022-11-15T14:57:58;100390.84;;;12.90;77.07
17936;BME280;9093;52.062;4.508;2022-11-15T15:00:39;100377.56;;;12.89;77.09
17936;BME280;9093;52.062;4.508;2022-11-15T15:03:19;100379.47;;;12.87;77.16
17936;BME280;9093;52.062;4.508;2022-11-15T15:06:00;100373.50;;;12.83;77.19
17936;BME280;9093;52.062;4.508;2022-11-15T15:08:40;100369.22;;;12.81;77.20
17936;BME280;9093;52.062;4.508;2022-11-15T15:11:21;100375.63;;;12.78;77.20
17936;BME280;9093;52.062;4.508;2022-11-15T15:14:03;100363.19;;;12.77;77.02
17936;BME280;9093;52.062;4.508;2022-11-15T15:16:43;100360.75;;;12.74;77.07
17936;BME280;9093;52.062;4.508;2022-11-15T15:19:23;100357.31;;;12.72;77.32
17936;BME280;9093;52.062;4.508;2022-11-15T15:22:03;100361.94;;;12.70;77.15
17936;BME280;9093;52.062;4.508;2022-11-15T15:24:44;100354.84;;;12.69;77.22
17936;BME280;9093;52.062;4.508;2022-11-15T15:27:25;100352.19;;;12.69;77.14
17936;BME280;9093;52.062;4.508;2022-11-15T15:30:05;100354.09;;;12.67;77.04
17936;BME280;9093;52.062;4.508;2022-11-15T15:32:46;100348.84;;;12.66;77.23
17936;BME280;9093;52.062;4.508;2022-11-15T15:35:29;100342.63;;;12.65;77.03
17936;BME280;9093;52.062;4.508;2022-11-15T15:38:11;100341.75;;;12.65;77.04
17936;BME280;9093;52.062;4.508;2022-11-15T15:40:51;100344.56;;;12.63;76.97
17936;BME280;9093;52.062;4.508;2022-11-15T15:43:32;100342.84;;;12.62;77.23
17936;BME280;9093;52.062;4.508;2022-11-15T15:46:16;100341.38;;;12.58;77.19
17936;BME280;9093;52.062;4.508;2022-11-15T15:48:56;100337.41;;;12.51;77.07
17936;BME280;9093;52.062;4.508;2022-11-15T15:51:36;100339.50;;;12.46;77.03
17936;BME280;9093;52.062;4.508;2022-11-15T15:54:16;100337.25;;;12.40;77.18
17936;BME280;9093;52.062;4.508;2022-11-15T15:56:57;100330.66;;;12.33;76.94
17936;BME280;9093;52.062;4.508;2022-11-15T15:59:37;100330.84;;;12.30;76.96
17936;BME280;9093;52.062;4.508;2022-11-15T16:02:17;100332.13;;;12.24;77.29
17936;BME280;9093;52.062;4.508;2022-11-15T16:04:57;100331.47;;;12.21;77.04
17936;BME280;9093;52.062;4.508;2022-11-15T16:07:37;100329.00;;;12.18;77.20
17936;BME280;9093;52.062;4.508;2022-11-15T16:10:21;100332.88;;;12.14;77.19
17936;BME280;9093;52.062;4.508;2022-11-15T16:13:02;100331.16;;;12.13;77.13
17936;BME280;9093;52.062;4.508;2022-11-15T16:15:42;100334.03;;;12.09;76.97
17936;BME280;9093;52.062;4.508;2022-11-15T16:18:23;100328.91;;;12.06;77.23
17936;BME280;9093;52.062;4.508;2022-11-15T16:21:03;100331.66;;;12.05;77.21
17936;BME280;9093;52.062;4.508;2022-11-15T16:23:43;100329.31;;;12.00;77.24
17936;BME280;9093;52.062;4.508;2022-11-15T16:26:24;100317.09;;;11.96;77.13
17936;BME280;9093;52.062;4.508;2022-11-15T16:29:05;100324.38;;;11.94;77.37
17936;BME280;9093;52.062;4.508;2022-11-15T16:31:46;100318.47;;;11.89;77.56
17936;BME280;9093;52.062;4.508;2022-11-15T16:34:27;100317.72;;;11.87;77.54
17936;BME280;9093;52.062;4.508;2022-11-15T16:37:25;100315.25;;;11.84;77.59
17936;BME280;9093;52.062;4.508;2022-11-15T16:40:08;100319.94;;;11.81;77.67
17936;BME280;9093;52.062;4.508;2022-11-15T16:42:52;100320.06;;;11.79;77.74